MST,Max TemperatureF,Mean TemperatureF,Min TemperatureF,Max Dew PointF,MeanDew PointF,Min DewpointF,Max Humidity, Mean Humidity, Min Humidity, Max Sea Level PressureIn, Mean Sea Level PressureIn, Min Sea Level PressureIn, Max VisibilityMiles, Mean VisibilityMiles, Min VisibilityMiles, Max Wind SpeedMPH, Mean Wind SpeedMPH, Max Gust SpeedMPH,PrecipitationIn, CloudCover, Events, WindDirDegrees
2011-11-1,68,50,33,35,27,14,86,56,13,30.02,29.89,29.70,10,10,4,23,9,32,0.01,2,Rain-Snow,228
2011-11-2,39,34,26,30,27,21,100,81,51,30.53,30.19,29.92,10,6,1,26,10,38,0.05,6,Snow,279
2011-11-3,51,34,19,31,21,15,82,63,29,30.50,30.29,30.06,10,10,10,12,7,,0.00,0,,142
2011-11-4,64,45,28,30,25,21,82,46,22,30.04,29.75,29.50,10,10,10,29,13,40,0.00,1,,138
2011-11-5,50,40,32,38,31,25,93,76,44,29.85,29.62,29.38,10,8,2,22,9,28,0.01,7,Rain-Snow,207
2011-11-6,43,35,28,30,24,19,92,67,43,30.02,29.95,29.85,10,10,10,14,4,,0.00,5,,180
2011-11-7,45,36,28,27,23,18,82,64,37,29.99,29.95,29.86,10,10,10,8,5,,0.00,2,,126
2011-11-8,41,33,25,24,21,19,88,68,43,30.42,30.21,29.99,10,10,10,8,4,,0.00,2,,144
2011-11-9,45,32,19,20,17,12,85,59,26,30.61,30.52,30.42,10,10,10,12,7,,0.00,0,,138
2011-11-10,48,33,18,16,13,11,74,50,22,30.63,30.46,30.33,10,10,10,9,5,,0.00,0,,129
2011-11-11,43,30,18,21,15,12,78,52,31,30.30,30.09,29.94,10,10,9,9,5,,0.00,1,,114
2011-11-12,55,42,30,25,21,12,69,42,18,29.92,29.80,29.68,10,10,4,25,6,34,0.00,3,,217
2011-11-13,48,39,28,33,29,25,85,60,44,29.88,29.76,29.68,10,10,10,17,6,22,0.00,4,,198
2011-11-14,54,40,27,27,22,15,85,54,22,29.94,29.86,29.78,10,10,10,17,7,22,0.00,1,,165
2011-11-15,54,40,25,27,23,17,81,54,24,30.01,29.93,29.84,10,10,10,14,6,,0.00,3,,117
2011-11-16,45,32,19,21,14,6,82,53,21,30.38,30.24,30.02,10,10,10,9,5,,0.00,0,,143
2011-11-17,51,35,19,17,11,8,71,46,18,30.36,30.17,29.92,10,10,5,9,7,,0.00,0,,174
2011-11-18,59,44,30,22,18,15,61,37,19,29.89,29.69,29.46,10,10,10,17,7,28,0.00,0,,201
2011-11-19,55,48,42,28,22,19,58,37,25,29.80,29.66,29.43,10,10,7,24,13,45,0.00,5,,240
2011-11-20,57,47,37,22,20,17,54,36,22,30.01,29.91,29.76,10,10,10,18,8,30,0.00,4,,191
2011-11-21,51,42,33,34,27,21,78,58,41,30.17,30.02,29.94,10,10,10,14,8,,0.00,6,,139
2011-11-22,53,40,28,32,27,22,89,65,35,30.40,30.30,30.17,10,10,10,9,4,,0.00,1,,157
2011-11-23,55,40,24,25,22,18,77,54,28,30.41,30.26,30.14,10,10,10,8,5,,0.00,0,,156
2011-11-24,55,39,23,23,18,14,72,41,22,30.17,30.02,29.86,10,10,10,18,6,28,0.00,1,,134
2011-11-25,52,43,34,33,24,13,82,49,31,30.19,29.96,29.86,10,10,10,17,9,22,0.00,2,,310
2011-11-26,37,28,19,13,5,-1,62,39,19,30.76,30.59,30.26,10,10,10,12,6,,0.00,0,,246
2011-11-27,46,31,16,10,7,3,68,44,18,30.76,30.63,30.52,10,10,10,9,6,,0.00,0,,155
2011-11-28,50,34,19,17,12,10,71,49,22,30.56,30.42,30.30,10,10,10,9,5,,0.00,0,,143
2011-11-29,52,36,21,19,16,14,72,49,23,30.45,30.33,30.23,10,10,10,10,5,,0.00,0,,149
2011-11-30,53,37,21,20,16,13,68,51,23,30.21,29.97,29.77,10,10,10,10,6,,0.00,0,,148